Time;durP1;ratioP1;P1;durP2;ratioP2;P2;SDS_P1;SDS_P2;PMS_P1;PMS_P2;Temp;Humidity;BMP_temperature;BMP_pressure;BME280_temperature;BME280_humidity;BME280_pressure;Samples;Min_cycle;Max_cycle;Signal;HPM_P1;HPM_P2
2021/03/01 00:01:11;;;;;;;12.50;7.40;;;0.60;99.90;;;;;;4961134;28;20451;-90
2021/03/01 00:03:37;;;;;;;12.43;7.30;;;0.60;99.90;;;;;;4958418;28;20473;-91
2021/03/01 00:06:04;;;;;;;12.00;7.17;;;0.50;99.90;;;;;;4956389;28;20490;-89
2021/03/01 00:08:31;;;;;;;11.70;7.70;;;0.50;99.90;;;;;;4956411;28;20459;-91
2021/03/01 00:10:58;;;;;;;12.07;7.03;;;0.50;99.90;;;;;;4956469;28;20452;-90
2021/03/01 00:13:25;;;;;;;11.37;7.63;;;0.80;99.90;;;;;;4956740;28;20477;-88
2021/03/01 00:15:52;;;;;;;12.73;7.00;;;0.50;99.90;;;;;;4960321;28;20471;-89
2021/03/01 00:18:19;;;;;;;13.10;7.63;;;0.50;99.90;;;;;;4961284;28;20451;-91
2021/03/01 00:20:45;;;;;;;11.90;7.00;;;0.50;99.90;;;;;;4965952;28;20510;-88
2021/03/01 00:23:12;;;;;;;11.13;7.27;;;0.50;99.90;;;;;;4956465;28;20480;-90
2021/03/01 00:25:40;;;;;;;11.73;7.00;;;0.40;99.90;;;;;;4961039;28;20562;-90
2021/03/01 00:28:10;;;;;;;15.67;7.87;;;0.40;99.90;;;;;;4956047;28;21034;-91
2021/03/01 00:30:39;;;;;;;9.87;6.73;;;0.40;99.90;;;;;;4956479;28;20466;-91
2021/03/01 00:33:06;;;;;;;9.60;6.37;;;0.40;99.90;;;;;;4955220;28;20498;-90
2021/03/01 00:35:34;;;;;;;11.07;6.80;;;0.30;99.90;;;;;;4960932;28;20450;-92
2021/03/01 00:38:00;;;;;;;11.33;6.50;;;0.30;99.90;;;;;;4957945;28;20491;-91
2021/03/01 00:40:27;;;;;;;10.67;7.00;;;0.30;99.90;;;;;;4957893;28;20470;-89
2021/03/01 00:42:54;;;;;;;9.50;7.00;;;0.30;99.90;;;;;;4955832;28;20458;-91
2021/03/01 00:45:22;;;;;;;12.47;6.60;;;0.30;99.90;;;;;;4955626;28;20526;-91
2021/03/01 00:48:04;;;;;;;11.93;6.47;;;0.30;99.90;;;;;;4959368;28;20439;-90
2021/03/01 00:50:31;;;;;;;9.80;6.40;;;0.30;99.90;;;;;;4955201;29;20592;-92
2021/03/01 00:52:57;;;;;;;11.90;6.47;;;0.20;99.90;;;;;;4955997;28;20502;-91
2021/03/01 00:55:23;;;;;;;8.03;5.90;;;0.20;99.90;;;;;;4974565;28;20451;-92
2021/03/01 00:57:49;;;;;;;10.03;6.93;;;0.20;99.90;;;;;;4960523;28;20448;-92
2021/03/01 01:00:19;;;;;;;9.50;6.67;;;0.00;99.90;;;;;;4955952;28;20474;-92
2021/03/01 01:02:45;;;;;;;9.67;6.83;;;0.20;99.90;;;;;;4955587;29;20454;-92
2021/03/01 01:05:13;;;;;;;11.50;5.90;;;0.20;99.90;;;;;;4955550;28;20463;-91
2021/03/01 01:07:39;;;;;;;8.57;6.47;;;0.20;99.90;;;;;;4955579;28;20458;-89
2021/03/01 01:10:07;;;;;;;9.73;6.03;;;0.20;99.90;;;;;;4955978;28;20435;-90
2021/03/01 01:12:33;;;;;;;9.60;7.07;;;0.10;99.90;;;;;;4956088;28;20454;-91
2021/03/01 01:15:00;;;;;;;9.03;6.30;;;0.10;99.90;;;;;;4955061;29;20447;-91
2021/03/01 01:17:27;;;;;;;11.80;6.17;;;0.10;99.90;;;;;;4954813;28;20458;-90
2021/03/01 01:19:53;;;;;;;12.07;6.70;;;0.10;99.90;;;;;;4955438;28;20506;-94
2021/03/01 01:22:19;;;;;;;10.23;7.00;;;0.00;99.90;;;;;;4955353;28;20462;-93
2021/03/01 01:24:46;;;;;;;10.63;6.40;;;;;;;;;;4955552;28;20459;-92
2021/03/01 01:27:12;;;;;;;11.27;7.07;;;0.00;99.90;;;;;;4955357;28;20498;-92
2021/03/01 01:29:39;;;;;;;10.30;6.70;;;0.00;99.90;;;;;;4961068;28;20829;-92
2021/03/01 01:32:06;;;;;;;9.97;6.63;;;0.00;99.90;;;;;;4954558;28;20455;-89
2021/03/01 01:34:33;;;;;;;10.00;6.73;;;0.10;99.90;;;;;;4956528;28;20510;-88
2021/03/01 01:36:59;;;;;;;7.80;5.50;;;-0.10;99.90;;;;;;4957286;28;20487;-89
2021/03/01 01:39:26;;;;;;;7.60;5.87;;;-0.10;99.90;;;;;;4955149;28;20446;-91
2021/03/01 01:41:52;;;;;;;9.50;6.80;;;-0.10;99.90;;;;;;4955309;28;20443;-92
2021/03/01 01:44:18;;;;;;;9.83;6.40;;;-0.10;99.90;;;;;;4955298;28;20458;-89
2021/03/01 01:46:45;;;;;;;11.77;7.10;;;-0.10;99.90;;;;;;4954351;28;20586;-89
2021/03/01 01:49:11;;;;;;;11.93;7.30;;;-0.10;99.90;;;;;;4955210;28;20459;-91
2021/03/01 01:51:40;;;;;;;12.00;6.40;;;0.80;99.90;;;;;;4957135;28;20955;-91
2021/03/01 01:54:07;;;;;;;13.93;7.50;;;-0.10;99.90;;;;;;4955079;28;20451;-90
2021/03/01 01:56:34;;;;;;;10.60;6.33;;;-0.10;99.90;;;;;;4960509;28;20478;-89
2021/03/01 01:59:00;;;;;;;10.33;6.37;;;-0.10;99.90;;;;;;4955140;28;20470;-89
2021/03/01 02:01:26;;;;;;;10.37;6.47;;;-0.10;99.90;;;;;;4958170;28;20451;-89
2021/03/01 02:04:00;;;;;;;11.57;6.80;;;-0.20;99.90;;;;;;4958692;28;20964;-88
2021/03/01 02:06:46;;;;;;;13.67;7.13;;;-0.20;99.90;;;;;;4959049;28;20495;-90
2021/03/01 02:09:23;;;;;;;11.40;7.50;;;-0.20;99.90;;;;;;4958552;28;20471;-90
2021/03/01 02:11:58;;;;;;;9.93;6.60;;;-0.40;99.90;;;;;;4958556;28;20557;-90
2021/03/01 02:14:32;;;;;;;8.17;5.60;;;-0.30;99.90;;;;;;4958287;28;20458;-92
2021/03/01 02:16:59;;;;;;;9.40;6.53;;;-0.30;99.90;;;;;;4958452;28;20474;-90
2021/03/01 02:19:26;;;;;;;9.33;5.80;;;;;;;;;;4963308;28;20457;-89
2021/03/01 02:21:53;;;;;;;10.80;6.27;;;-0.30;99.90;;;;;;4958387;28;20459;-89
2021/03/01 02:24:26;;;;;;;10.67;6.10;;;-0.30;99.90;;;;;;4972970;28;20453;-89
2021/03/01 02:26:57;;;;;;;7.50;5.77;;;-0.30;99.90;;;;;;4961574;28;20494;-89
2021/03/01 02:29:26;;;;;;;8.80;5.60;;;-0.40;99.90;;;;;;4964802;28;20463;-89
2021/03/01 02:31:55;;;;;;;11.70;7.10;;;-0.40;99.90;;;;;;4957786;28;20812;-89
2021/03/01 02:34:22;;;;;;;7.90;5.93;;;-0.40;99.90;;;;;;4960618;28;20474;-88
2021/03/01 02:36:54;;;;;;;10.63;6.60;;;-0.40;99.90;;;;;;4963565;28;20490;-90
2021/03/01 02:39:24;;;;;;;10.87;6.67;;;-0.40;99.90;;;;;;4962775;28;20455;-90
2021/03/01 02:41:52;;;;;;;9.10;6.90;;;-0.50;99.90;;;;;;4958090;28;20461;-88
2021/03/01 02:44:19;;;;;;;11.90;6.90;;;-0.40;99.90;;;;;;4962836;28;20804;-90
2021/03/01 02:46:46;;;;;;;9.20;5.93;;;-0.50;99.90;;;;;;4962867;28;20516;-88
2021/03/01 02:49:13;;;;;;;9.93;6.60;;;-0.50;99.90;;;;;;4959404;28;20522;-88
2021/03/01 02:51:41;;;;;;;10.03;6.17;;;-0.50;99.90;;;;;;4958172;28;20457;-90
2021/03/01 02:54:08;;;;;;;10.67;6.20;;;-0.50;99.90;;;;;;4957859;28;20468;-89
2021/03/01 02:56:36;;;;;;;8.93;6.30;;;-0.50;99.90;;;;;;4957874;28;20459;-89
2021/03/01 02:59:04;;;;;;;12.00;7.30;;;-0.60;99.90;;;;;;4958174;28;20483;-91
2021/03/01 03:01:31;;;;;;;9.13;5.63;;;-0.50;99.90;;;;;;4960246;28;20466;-88
2021/03/01 03:03:59;;;;;;;12.03;6.83;;;-0.60;99.90;;;;;;4963331;28;20467;-91
2021/03/01 03:06:28;;;;;;;10.07;6.57;;;-0.60;99.90;;;;;;4958608;28;20499;-90
2021/03/01 03:08:55;;;;;;;8.43;6.20;;;-0.60;99.90;;;;;;4962959;28;20466;-90
2021/03/01 03:11:24;;;;;;;10.90;6.70;;;-0.70;99.90;;;;;;4958573;28;20459;-90
2021/03/01 03:13:53;;;;;;;11.50;6.57;;;-0.70;99.90;;;;;;4964518;28;20451;-90
2021/03/01 03:16:23;;;;;;;10.70;6.80;;;-0.80;99.90;;;;;;4958236;28;20463;-90
2021/03/01 03:18:51;;;;;;;11.10;6.30;;;-0.70;99.90;;;;;;4959704;28;20949;-90
2021/03/01 03:21:18;;;;;;;8.83;6.50;;;-0.70;99.90;;;;;;4959145;28;20462;-93
2021/03/01 03:23:44;;;;;;;10.70;6.97;;;-0.70;99.90;;;;;;4965376;28;20458;-90
2021/03/01 03:26:13;;;;;;;9.90;6.20;;;-0.80;99.90;;;;;;4957263;28;20499;-92
2021/03/01 03:28:40;;;;;;;13.73;7.33;;;-0.80;99.90;;;;;;4993586;28;20536;-90
2021/03/01 03:31:07;;;;;;;14.97;7.53;;;-0.80;99.90;;;;;;4991339;28;20457;-90
2021/03/01 03:33:34;;;;;;;10.20;6.70;;;-0.80;99.90;;;;;;4994073;28;20450;-91
2021/03/01 03:36:02;;;;;;;10.00;6.50;;;-0.70;99.90;;;;;;4991466;28;20446;-92
2021/03/01 03:38:31;;;;;;;12.10;6.47;;;-0.80;99.90;;;;;;4990985;28;20481;-90
2021/03/01 03:41:00;;;;;;;13.93;6.83;;;-0.80;99.90;;;;;;4991216;28;20463;-91
2021/03/01 03:43:27;;;;;;;11.30;7.50;;;-0.80;99.90;;;;;;4993682;28;20448;-89
2021/03/01 03:45:56;;;;;;;10.93;7.20;;;-0.80;99.90;;;;;;4987700;28;20501;-93
2021/03/01 03:48:25;;;;;;;11.50;7.40;;;-0.80;99.90;;;;;;4962478;28;20458;-90
2021/03/01 03:50:53;;;;;;;11.40;7.17;;;-0.80;99.90;;;;;;4957131;28;20454;-88
2021/03/01 03:53:25;;;;;;;12.33;7.50;;;-0.80;99.90;;;;;;4976437;28;20540;-89
2021/03/01 03:56:10;;;;;;;11.73;7.17;;;-0.80;99.90;;;;;;4958642;29;20447;-91
2021/03/01 03:58:42;;;;;;;11.67;6.93;;;-0.80;99.90;;;;;;4956695;28;20489;-91
2021/03/01 04:01:12;;;;;;;11.83;7.67;;;-0.90;99.90;;;;;;4961430;28;20486;-91
2021/03/01 04:03:41;;;;;;;10.37;7.20;;;-0.90;99.90;;;;;;4961683;28;20458;-92
2021/03/01 04:06:08;;;;;;;10.67;7.13;;;-0.90;99.90;;;;;;4962327;28;20497;-91
2021/03/01 04:08:36;;;;;;;11.13;6.43;;;-0.90;99.90;;;;;;4956983;28;20811;-91
2021/03/01 04:11:02;;;;;;;12.37;7.77;;;-0.90;99.90;;;;;;4961707;28;20459;-90
2021/03/01 04:13:31;;;;;;;16.90;7.63;;;-0.90;99.90;;;;;;4958600;28;20468;-89
2021/03/01 04:15:58;;;;;;;12.60;7.50;;;-0.90;99.90;;;;;;4959990;28;20443;-89
2021/03/01 04:18:30;;;;;;;10.70;7.67;;;-0.90;99.90;;;;;;4965458;28;20454;-91
2021/03/01 04:21:02;;;;;;;14.43;8.10;;;-0.90;99.90;;;;;;4959022;28;20476;-90
2021/03/01 04:23:30;;;;;;;11.47;7.73;;;-1.00;99.90;;;;;;4960839;28;20469;-91
2021/03/01 04:25:58;;;;;;;9.60;6.67;;;-0.90;99.90;;;;;;4956398;28;20550;-92
2021/03/01 04:28:25;;;;;;;11.17;7.73;;;-0.90;99.90;;;;;;4961249;28;20457;-92
2021/03/01 04:30:52;;;;;;;10.60;7.23;;;-0.90;99.90;;;;;;4961075;28;20450;-90
2021/03/01 04:33:20;;;;;;;13.77;6.87;;;-0.90;99.90;;;;;;4956788;28;20458;-90
2021/03/01 04:35:49;;;;;;;12.70;7.30;;;-1.00;99.90;;;;;;4961094;28;20460;-92
2021/03/01 04:38:16;;;;;;;8.30;6.00;;;-1.00;99.90;;;;;;4956014;28;20489;-89
2021/03/01 04:40:43;;;;;;;10.47;7.37;;;-1.00;99.90;;;;;;4958491;28;20583;-91
2021/03/01 04:43:11;;;;;;;10.07;6.07;;;-1.00;99.90;;;;;;4957134;28;20454;-91
2021/03/01 04:45:38;;;;;;;13.60;7.23;;;-1.00;99.90;;;;;;4960629;28;20472;-90
2021/03/01 04:48:07;;;;;;;10.87;6.97;;;-1.00;99.90;;;;;;4956150;28;20489;-91
2021/03/01 04:50:34;;;;;;;10.27;6.67;;;-1.00;99.90;;;;;;4958387;28;20545;-89
2021/03/01 04:53:01;;;;;;;11.13;7.57;;;-1.00;99.90;;;;;;4965369;28;20481;-91
2021/03/01 04:55:28;;;;;;;11.40;7.10;;;-1.00;99.90;;;;;;4957049;28;20450;-91
2021/03/01 04:57:56;;;;;;;11.07;7.07;;;-1.00;99.90;;;;;;4956222;28;20527;-90
2021/03/01 05:00:24;;;;;;;10.90;7.37;;;-1.00;99.90;;;;;;4961104;28;20450;-90
2021/03/01 05:02:52;;;;;;;11.13;6.80;;;-1.10;99.90;;;;;;4957388;28;20452;-89
2021/03/01 05:05:18;;;;;;;13.30;7.67;;;-1.10;99.90;;;;;;4962281;28;20459;-91
2021/03/01 05:07:47;;;;;;;13.87;7.83;;;-1.10;99.90;;;;;;4955806;28;20588;-90
2021/03/01 05:10:14;;;;;;;13.63;7.20;;;-1.10;99.90;;;;;;4955972;28;20465;-91
2021/03/01 05:12:41;;;;;;;11.53;6.20;;;-1.10;99.90;;;;;;4955903;28;20458;-90
2021/03/01 05:15:09;;;;;;;9.30;6.90;;;-1.20;99.90;;;;;;4955936;28;20475;-89
2021/03/01 05:17:38;;;;;;;10.67;7.10;;;-1.10;99.90;;;;;;4955820;28;20472;-91
2021/03/01 05:20:05;;;;;;;10.77;6.50;;;-1.30;99.90;;;;;;4969418;28;20445;-90
2021/03/01 05:22:31;;;;;;;11.10;6.50;;;-1.20;99.90;;;;;;4971504;28;20494;-90
2021/03/01 05:24:58;;;;;;;11.87;7.77;;;-1.20;99.90;;;;;;4962293;28;20459;-90
2021/03/01 05:27:24;;;;;;;9.93;6.43;;;-1.20;99.90;;;;;;4956070;28;20493;-90
2021/03/01 05:29:51;;;;;;;10.70;7.13;;;-1.20;99.90;;;;;;4985813;28;20448;-90
2021/03/01 05:32:18;;;;;;;9.40;7.20;;;-1.20;99.90;;;;;;4955091;28;20466;-89
2021/03/01 05:34:44;;;;;;;12.40;7.50;;;-1.20;99.90;;;;;;4956310;28;20929;-91
2021/03/01 05:37:10;;;;;;;16.20;7.40;;;-1.30;99.90;;;;;;4959597;28;20499;-91
2021/03/01 05:39:37;;;;;;;11.03;7.50;;;-1.30;99.90;;;;;;4959671;28;20477;-91
2021/03/01 05:42:04;;;;;;;9.50;6.70;;;-1.30;99.90;;;;;;4959433;28;20460;-91
2021/03/01 05:44:30;;;;;;;13.63;7.57;;;-1.20;99.90;;;;;;4959933;28;20466;-92
2021/03/01 05:47:02;;;;;;;11.50;6.90;;;-1.30;99.90;;;;;;4960035;28;20496;-91
2021/03/01 05:49:29;;;;;;;13.37;7.53;;;-1.30;99.90;;;;;;4966823;28;20465;-92
2021/03/01 05:51:59;;;;;;;14.00;7.73;;;-1.30;99.90;;;;;;4962342;28;20449;-90
2021/03/01 05:54:28;;;;;;;10.10;6.43;;;-1.30;99.90;;;;;;4959590;29;20506;-90
2021/03/01 05:56:55;;;;;;;13.63;7.00;;;-1.30;99.90;;;;;;4959212;28;20494;-91
2021/03/01 05:59:21;;;;;;;9.90;5.93;;;-1.30;99.90;;;;;;4966708;28;20459;-91
2021/03/01 06:01:49;;;;;;;17.13;6.77;;;-1.30;99.90;;;;;;4963257;28;20453;-90
2021/03/01 06:04:16;;;;;;;13.23;6.53;;;-1.30;99.90;;;;;;4964981;28;20460;-90
2021/03/01 06:06:43;;;;;;;8.97;6.50;;;-1.30;99.90;;;;;;4958959;28;20498;-90
2021/03/01 06:09:09;;;;;;;9.03;6.67;;;-1.30;99.90;;;;;;4963937;28;20974;-92
2021/03/01 06:11:36;;;;;;;13.30;7.30;;;-1.30;99.90;;;;;;4958876;28;20838;-91
2021/03/01 06:14:03;;;;;;;13.60;7.27;;;-1.30;99.90;;;;;;4959555;28;20463;-90
2021/03/01 06:16:30;;;;;;;13.17;7.77;;;-1.30;99.90;;;;;;4965885;28;20843;-90
2021/03/01 06:18:56;;;;;;;11.17;7.27;;;-1.30;99.90;;;;;;4960498;28;20463;-90
2021/03/01 06:21:23;;;;;;;22.73;12.87;;;-1.20;99.90;;;;;;4968000;28;20453;-89
2021/03/01 06:23:51;;;;;;;50.30;23.67;;;-1.00;99.90;;;;;;4968789;28;20465;-89
2021/03/01 06:26:35;;;;;;;34.67;19.33;;;-0.80;99.90;;;;;;4960781;29;20832;-91
2021/03/01 06:29:08;;;;;;;32.07;16.90;;;-0.50;99.90;;;;;;4959872;29;20457;-92
2021/03/01 06:31:41;;;;;;;26.73;15.63;;;-0.20;99.90;;;;;;4959372;28;20454;-93
2021/03/01 06:34:19;;;;;;;19.63;12.13;;;-0.10;99.90;;;;;;4963007;28;20756;-92
2021/03/01 06:37:02;;;;;;;16.93;10.83;;;0.30;99.90;;;;;;4960953;28;20498;-89
2021/03/01 06:39:31;;;;;;;18.43;10.73;;;0.50;99.90;;;;;;4959410;28;20455;-92
2021/03/01 06:41:58;;;;;;;14.07;9.70;;;0.60;99.90;;;;;;4963670;28;20455;-91
2021/03/01 06:44:24;;;;;;;17.60;9.77;;;0.80;99.90;;;;;;4964275;28;20490;-92
2021/03/01 06:46:52;;;;;;;10.00;8.40;;;1.00;99.90;;;;;;4962116;28;20860;-92
2021/03/01 06:49:20;;;;;;;12.40;8.93;;;1.10;99.90;;;;;;4972564;28;20443;-91
2021/03/01 06:51:46;;;;;;;13.30;7.97;;;1.40;99.90;;;;;;4964381;28;20464;-92
2021/03/01 06:54:21;;;;;;;13.37;7.80;;;1.60;99.90;;;;;;4980495;28;20446;-93
2021/03/01 06:56:48;;;;;;;10.80;8.00;;;1.90;99.90;;;;;;4978306;28;20469;-91
2021/03/01 06:59:15;;;;;;;10.40;8.20;;;2.10;99.90;;;;;;4980052;28;20450;-91
2021/03/01 07:01:47;;;;;;;16.80;11.30;;;2.30;99.90;;;;;;4975439;28;20500;-91
2021/03/01 07:04:21;;;;;;;13.17;10.67;;;2.30;99.90;;;;;;4976529;28;20458;-90
2021/03/01 07:06:48;;;;;;;14.67;10.70;;;2.40;99.90;;;;;;4978675;28;20497;-90
2021/03/01 07:09:17;;;;;;;13.33;10.17;;;2.40;99.90;;;;;;4982090;28;20472;-90
2021/03/01 07:11:44;;;;;;;11.20;9.63;;;2.60;99.90;;;;;;4976529;28;20585;-90
2021/03/01 07:14:12;;;;;;;12.43;9.57;;;2.80;99.90;;;;;;4979920;28;20467;-92
2021/03/01 07:16:40;;;;;;;19.17;9.60;;;2.90;99.90;;;;;;4977732;28;20541;-91
2021/03/01 07:19:09;;;;;;;10.57;9.47;;;3.00;99.90;;;;;;4977178;28;20517;-91
2021/03/01 07:21:38;;;;;;;10.90;9.00;;;3.30;99.90;;;;;;4977863;28;20477;-91
2021/03/01 07:24:06;;;;;;;10.87;9.20;;;3.40;99.90;;;;;;4980051;28;20461;-90
2021/03/01 07:26:34;;;;;;;10.67;9.03;;;3.70;99.90;;;;;;4979092;28;20486;-91
2021/03/01 07:29:05;;;;;;;11.27;9.47;;;4.00;99.90;;;;;;4977874;28;20449;-92
2021/03/01 07:31:35;;;;;;;13.10;8.53;;;3.90;99.90;;;;;;4980823;28;20462;-93
2021/03/01 07:34:04;;;;;;;14.33;9.43;;;4.90;99.90;;;;;;4979683;28;20458;-91
2021/03/01 07:36:31;;;;;;;12.00;9.33;;;4.70;99.90;;;;;;4981911;28;20453;-91
2021/03/01 07:39:00;;;;;;;13.47;9.97;;;5.00;99.90;;;;;;4979704;28;20447;-90
2021/03/01 07:41:27;;;;;;;13.53;10.17;;;5.50;99.90;;;;;;4979258;28;20462;-92
2021/03/01 07:43:55;;;;;;;14.00;9.10;;;6.10;99.90;;;;;;4977275;28;20446;-92
2021/03/01 07:46:25;;;;;;;16.70;10.43;;;6.80;99.90;;;;;;4976928;28;21008;-92
2021/03/01 07:48:52;;;;;;;14.87;9.43;;;7.00;99.90;;;;;;4980464;28;20463;-91
2021/03/01 07:51:40;;;;;;;11.10;9.80;;;7.40;99.90;;;;;;4978282;28;20455;-89
2021/03/01 07:54:06;;;;;;;10.27;9.03;;;8.40;99.90;;;;;;4978084;28;20457;-92
2021/03/01 07:56:48;;;;;;;13.47;10.30;;;7.80;99.90;;;;;;4979126;28;20489;-91
2021/03/01 07:59:32;;;;;;;12.83;10.07;;;8.40;99.20;;;;;;4977022;28;20508;-91
2021/03/01 08:02:17;;;;;;;11.23;9.57;;;8.50;98.70;;;;;;4973459;28;20449;-92
2021/03/01 08:04:44;;;;;;;12.00;10.20;;;9.00;97.50;;;;;;4977961;28;20450;-91
2021/03/01 08:07:10;;;;;;;11.63;9.50;;;9.00;97.60;;;;;;4977779;28;20486;-93
2021/03/01 08:09:49;;;;;;;10.20;9.10;;;9.70;96.40;;;;;;4978588;28;20438;-92
2021/03/01 08:12:48;;;;;;;13.67;9.60;;;9.50;96.00;;;;;;4977586;28;20449;-93
2021/03/01 08:15:23;;;;;;;13.60;9.23;;;10.00;94.60;;;;;;4980301;28;20471;-92
2021/03/01 08:17:51;;;;;;;15.87;9.37;;;10.10;94.20;;;;;;4985255;28;20446;-93
2021/03/01 08:20:32;;;;;;;12.10;9.60;;;10.00;94.70;;;;;;4980978;28;20938;-93
2021/03/01 08:23:12;;;;;;;8.53;7.60;;;10.20;93.70;;;;;;4976554;28;20458;-92
2021/03/01 08:25:53;;;;;;;10.30;7.80;;;10.10;93.30;;;;;;4980312;28;20497;-90
2021/03/01 08:28:48;;;;;;;11.00;8.87;;;10.10;93.70;;;;;;4977398;28;20465;-92
2021/03/01 08:31:38;;;;;;;8.83;7.93;;;10.40;93.40;;;;;;4975996;28;20460;-92
2021/03/01 08:34:34;;;;;;;10.37;7.70;;;11.00;92.10;;;;;;4978178;28;20894;-92
2021/03/01 08:37:02;;;;;;;13.50;8.67;;;11.50;91.50;;;;;;4979752;28;20552;-93
2021/03/01 08:40:02;;;;;;;10.93;8.37;;;11.30;91.40;;;;;;4980389;28;20520;-93
2021/03/01 08:42:48;;;;;;;12.17;9.03;;;11.60;91.20;;;;;;4972785;28;20450;-92
2021/03/01 08:45:21;;;;;;;9.20;8.17;;;11.50;91.50;;;;;;4976363;28;20451;-92
2021/03/01 08:47:51;;;;;;;8.50;7.70;;;11.50;90.80;;;;;;4975772;28;20502;-92
2021/03/01 08:50:22;;;;;;;8.73;7.20;;;12.10;89.40;;;;;;4977540;28;20456;-91
2021/03/01 08:52:49;;;;;;;7.60;6.83;;;12.00;88.50;;;;;;4959273;28;20451;-90
2021/03/01 08:55:18;;;;;;;8.43;7.47;;;11.60;87.90;;;;;;4958992;28;20470;-91
2021/03/01 08:57:59;;;;;;;8.87;7.17;;;10.50;90.00;;;;;;4961487;28;20459;-91
2021/03/01 09:00:28;;;;;;;7.47;6.70;;;10.20;90.50;;;;;;4962493;28;20494;-92
2021/03/01 09:03:11;;;;;;;7.23;6.50;;;10.10;90.40;;;;;;4957592;29;20451;-92
2021/03/01 09:05:38;;;;;;;7.70;6.97;;;10.50;90.30;;;;;;4959272;29;20436;-93
2021/03/01 09:08:05;;;;;;;8.23;6.50;;;9.90;91.10;;;;;;4957545;28;20573;-92
2021/03/01 09:10:41;;;;;;;6.90;6.20;;;10.90;90.00;;;;;;4957908;28;20486;-92
2021/03/01 09:13:09;;;;;;;9.80;6.30;;;10.40;90.10;;;;;;4958218;28;20494;-92
2021/03/01 09:15:36;;;;;;;9.67;6.90;;;11.20;89.70;;;;;;4959345;28;20443;-93
2021/03/01 09:18:04;;;;;;;10.13;6.87;;;11.70;87.90;;;;;;4954851;28;20462;-90
2021/03/01 09:20:40;;;;;;;8.27;6.80;;;11.70;88.40;;;;;;4939164;29;20463;-92
2021/03/01 09:23:07;;;;;;;7.80;6.97;;;11.30;86.60;;;;;;4941168;29;20456;-92
2021/03/01 09:25:34;;;;;;;10.60;7.37;;;11.80;88.30;;;;;;4945741;29;20452;-91
2021/03/01 09:28:01;;;;;;;8.40;6.70;;;11.40;87.10;;;;;;4938736;29;20869;-92
2021/03/01 09:30:28;;;;;;;8.40;6.93;;;11.90;86.80;;;;;;4941186;29;20514;-90
2021/03/01 09:33:00;;;;;;;6.80;6.00;;;12.50;84.60;;;;;;4942266;28;20512;-92
2021/03/01 09:35:28;;;;;;;8.13;6.83;;;12.60;82.80;;;;;;4938813;29;20454;-90
2021/03/01 09:37:56;;;;;;;7.23;6.53;;;12.20;85.30;;;;;;4937955;29;20499;-91
2021/03/01 09:40:24;;;;;;;7.70;6.23;;;12.90;82.50;;;;;;4941385;29;20460;-91
2021/03/01 09:42:54;;;;;;;7.60;6.80;;;13.10;81.00;;;;;;4941759;29;20456;-93
2021/03/01 09:45:22;;;;;;;6.83;6.13;;;11.20;83.10;;;;;;4945770;29;20978;-90
2021/03/01 09:47:56;;;;;;;9.60;7.23;;;12.10;87.10;;;;;;4955138;29;20483;-89
2021/03/01 09:50:23;;;;;;;14.07;7.73;;;12.40;83.70;;;;;;4960078;28;20466;-91
2021/03/01 09:52:49;;;;;;;8.07;6.93;;;12.80;83.50;;;;;;4942427;29;20440;-92
2021/03/01 09:55:20;;;;;;;7.70;6.90;;;13.10;82.90;;;;;;4939101;29;20487;-90
2021/03/01 09:57:46;;;;;;;9.50;6.73;;;12.00;83.60;;;;;;4938374;29;20897;-91
2021/03/01 10:00:28;;;;;;;10.00;6.77;;;12.30;82.60;;;;;;4941639;29;20466;-94
2021/03/01 10:03:00;;;;;;;8.03;7.23;;;12.40;83.70;;;;;;4939133;29;20440;-93
2021/03/01 10:05:30;;;;;;;7.93;6.57;;;13.60;81.80;;;;;;4939230;29;20460;-93
2021/03/01 10:07:59;;;;;;;8.67;7.47;;;13.70;78.30;;;;;;4936318;29;20488;-92
2021/03/01 10:10:37;;;;;;;7.13;6.40;;;13.80;76.90;;;;;;4938479;29;20444;-92
2021/03/01 10:13:04;;;;;;;7.00;6.40;;;14.10;74.70;;;;;;4938632;29;20452;-91
2021/03/01 10:15:42;;;;;;;11.27;7.93;;;13.30;74.20;;;;;;4938361;29;20486;-90
2021/03/01 10:18:10;;;;;;;8.77;7.40;;;13.60;75.90;;;;;;4939334;29;20467;-93
2021/03/01 10:20:55;;;;;;;9.37;7.40;;;14.10;74.70;;;;;;4938938;29;20471;-93
2021/03/01 10:23:32;;;;;;;9.27;6.60;;;13.80;73.10;;;;;;4951287;28;20438;-93
2021/03/01 10:26:18;;;;;;;7.80;6.03;;;13.50;73.90;;;;;;4970138;28;20574;-91
2021/03/01 10:28:56;;;;;;;7.47;6.63;;;13.80;71.70;;;;;;4979471;28;20964;-93
2021/03/01 10:31:31;;;;;;;7.83;6.30;;;13.20;71.00;;;;;;4980101;28;20446;-91
2021/03/01 10:34:03;;;;;;;6.80;5.60;;;14.30;77.10;;;;;;4984098;28;20437;-92
2021/03/01 10:36:33;;;;;;;7.03;6.33;;;13.70;69.80;;;;;;4987764;28;20469;-96
2021/03/01 10:39:19;;;;;;;8.43;6.67;;;15.50;71.90;;;;;;4985421;28;20463;-94
2021/03/01 10:41:48;;;;;;;7.73;6.43;;;14.00;69.60;;;;;;4983054;28;20501;-95
2021/03/01 10:44:15;;;;;;;7.10;6.20;;;15.90;71.30;;;;;;4984625;28;20462;-95
2021/03/01 10:46:45;;;;;;;6.80;6.20;;;14.70;67.80;;;;;;4984933;28;20498;-95
2021/03/01 10:49:29;;;;;;;9.40;7.43;;;15.20;66.70;;;;;;4983643;28;20454;-93
2021/03/01 10:52:00;;;;;;;6.67;6.03;;;14.60;66.40;;;;;;4974326;28;20477;-92
2021/03/01 10:54:28;;;;;;;8.20;6.53;;;15.20;67.50;;;;;;4962367;28;20435;-95
2021/03/01 10:56:55;;;;;;;6.90;5.83;;;15.40;64.80;;;;;;4966283;28;20461;-96
2021/03/01 10:59:33;;;;;;;6.83;6.07;;;15.40;63.60;;;;;;4987443;28;20454;-95
2021/03/01 11:02:17;;;;;;;6.30;5.43;;;15.40;62.70;;;;;;4995245;28;20461;-95
2021/03/01 11:04:44;;;;;;;7.40;5.90;;;14.60;65.40;;;;;;4989065;28;20797;-95
2021/03/01 11:07:10;;;;;;;7.50;6.30;;;15.20;64.30;;;;;;4980570;28;20610;-95
2021/03/01 11:09:37;;;;;;;8.23;6.33;;;15.80;63.20;;;;;;4985322;28;20486;-88
2021/03/01 11:12:06;;;;;;;6.33;5.73;;;16.00;62.00;;;;;;4981186;28;20442;-92
2021/03/01 11:14:33;;;;;;;6.00;5.37;;;15.50;59.50;;;;;;5000099;28;20460;-93
2021/03/01 11:17:01;;;;;;;7.30;5.10;;;14.60;59.30;;;;;;5011768;28;20472;-92
2021/03/01 11:19:29;;;;;;;6.60;5.73;;;;;;;;;;4999685;28;20457;-94
2021/03/01 11:21:55;;;;;;;6.90;5.60;;;;;;;;;;4999101;28;20452;-92
2021/03/01 11:24:22;;;;;;;8.33;5.67;;;;;;;;;;4998639;28;20457;-94
2021/03/01 11:26:49;;;;;;;7.30;5.70;;;;;;;;;;4992861;28;20567;-93
2021/03/01 11:29:20;;;;;;;6.20;5.60;;;15.80;56.70;;;;;;4985037;28;20450;-93
2021/03/01 11:31:49;;;;;;;5.80;4.80;;;14.60;56.10;;;;;;4985449;28;20457;-93
2021/03/01 11:34:16;;;;;;;5.60;4.57;;;;;;;;;;5004070;28;20484;-92
2021/03/01 11:36:43;;;;;;;5.10;4.40;;;;;;;;;;5004587;28;20572;-92
2021/03/01 11:39:13;;;;;;;6.73;4.60;;;14.10;55.00;;;;;;5003543;28;20515;-94
2021/03/01 11:41:40;;;;;;;5.93;4.53;;;;;;;;;;5016154;28;20449;-91
2021/03/01 11:44:08;;;;;;;4.40;4.00;;;;;;;;;;5009599;28;20477;-95
2021/03/01 11:46:36;;;;;;;7.40;5.10;;;15.00;55.10;;;;;;5000369;28;20890;-92
2021/03/01 11:49:03;;;;;;;4.30;3.90;;;;;;;;;;4986992;28;20541;-92
2021/03/01 11:51:29;;;;;;;5.70;4.20;;;;;;;;;;4984557;28;20461;-90
2021/03/01 11:53:58;;;;;;;5.33;4.50;;;15.60;62.80;;;;;;4990956;28;20456;-91
2021/03/01 11:56:25;;;;;;;5.40;4.20;;;;;;;;;;4996003;28;20814;-90
2021/03/01 11:58:52;;;;;;;5.07;4.07;;;16.20;53.50;;;;;;4996058;28;20449;-92
2021/03/01 12:01:18;;;;;;;7.50;4.40;;;16.00;52.30;;;;;;4996376;28;20556;-91
2021/03/01 12:03:45;;;;;;;5.57;4.50;;;16.00;52.00;;;;;;4997330;28;20461;-93
2021/03/01 12:06:12;;;;;;;4.23;3.53;;;;;;;;;;4990944;28;20454;-92
2021/03/01 12:08:41;;;;;;;5.40;4.30;;;15.10;65.40;;;;;;4980983;28;20462;-91
2021/03/01 12:11:08;;;;;;;4.63;3.93;;;;;;;;;;4957776;28;20459;-92
2021/03/01 12:13:36;;;;;;;4.83;4.40;;;;;;;;;;4960150;28;20467;-92
2021/03/01 12:16:03;;;;;;;5.50;4.10;;;;;;;;;;4958382;28;20459;-92
2021/03/01 12:18:31;;;;;;;3.90;3.50;;;15.40;52.30;;;;;;4963066;28;20444;-93
2021/03/01 12:20:59;;;;;;;5.40;4.10;;;14.90;51.70;;;;;;4965628;29;20455;-95
2021/03/01 12:25:52;;;;;;;5.27;4.40;;;16.00;52.60;;;;;;5006090;22;20485;-94
2021/03/01 12:28:18;;;;;;;4.83;4.23;;;16.00;52.60;;;;;;4988800;28;20301;-93
2021/03/01 12:30:45;;;;;;;4.97;3.40;;;15.30;63.50;;;;;;4997479;28;20918;-89
2021/03/01 12:33:12;;;;;;;4.57;3.73;;;15.50;52.70;;;;;;4996814;28;20489;-91
2021/03/01 12:35:39;;;;;;;4.60;3.73;;;;;;;;;;4996116;28;20434;-94
2021/03/01 12:38:07;;;;;;;3.97;3.33;;;16.50;52.30;;;;;;5000387;28;20445;-92
2021/03/01 12:40:34;;;;;;;5.50;4.20;;;;;;;;;;5001305;28;20443;-89
2021/03/01 12:43:00;;;;;;;4.80;4.10;;;15.50;51.00;;;;;;4998429;28;20466;-90
2021/03/01 12:45:27;;;;;;;5.00;4.27;;;15.10;54.10;;;;;;5001379;28;20445;-88
2021/03/01 12:47:54;;;;;;;7.43;3.50;;;;;;;;;;4995413;28;20555;-87
2021/03/01 12:50:22;;;;;;;9.03;3.70;;;16.50;58.90;;;;;;4992402;28;20516;-89
2021/03/01 12:52:49;;;;;;;5.53;4.03;;;;;;;;;;4999906;28;20453;-95
2021/03/01 12:55:17;;;;;;;4.70;4.07;;;16.60;52.00;;;;;;4953351;28;20461;-90
2021/03/01 12:57:43;;;;;;;4.23;3.30;;;17.30;56.90;;;;;;5006216;28;20445;-89
2021/03/01 13:00:10;;;;;;;5.40;4.90;;;16.10;53.00;;;;;;5009165;28;20444;-90
2021/03/01 13:02:37;;;;;;;4.57;3.70;;;16.10;54.50;;;;;;4997530;28;20512;-90
2021/03/01 13:05:05;;;;;;;6.93;4.47;;;15.70;54.50;;;;;;4999281;28;20449;-88